This is the latest recevied weather packets stored in our database for station/object EA4BCR. If no packets are shown the sender has not sent any weather packets the latest 10 day(s).
| Time | Temp. | Humidity | Pressure | Rain* | Wind** | Luminosity | Snow |
|---|---|---|---|---|---|---|---|
| 1787481611 | 27.78° C | 42% | 1013.1 hPa | - | - | - | - |
| 1787481010 | 27.22° C | 43% | 1013.3 hPa | - | - | - | - |
| 1787480410 | 27.22° C | 43% | 1013.4 hPa | - | - | - | - |
| 1787479810 | 28.33° C | 43% | 1013.3 hPa | - | - | - | - |
| 1787479211 | 27.78° C | 45% | 1013.3 hPa | - | - | - | - |
| 1787478610 | 27.78° C | 45% | 1013.5 hPa | - | - | - | - |
| 1787478010 | 27.22° C | 50% | 1013.5 hPa | - | - | - | - |
| 1787477410 | 27.22° C | 49% | 1013.6 hPa | - | - | - | - |
| 1787476810 | 27.22° C | 53% | 1013.8 hPa | - | - | - | - |
| 1787476210 | 26.11° C | 56% | 1014.4 hPa | - | - | - | - |
| 1787475610 | 25.56° C | 61% | 1014.6 hPa | - | - | - | - |
| 1787475010 | 25.56° C | 62% | 1014.5 hPa | - | - | - | - |
| 1787474410 | 25° C | 67% | 1014.8 hPa | - | - | - | - |
| 1787473810 | 25° C | 67% | 1014.7 hPa | - | - | - | - |
| 1787473210 | 24.44° C | 75% | 1015.1 hPa | - | - | - | - |
| 1787472610 | 23.89° C | 77% | 1015.4 hPa | - | - | - | - |
| 1787472010 | 23.89° C | 77% | 1015.4 hPa | - | - | - | - |
| 1787471410 | 23.33° C | 82% | 1015.5 hPa | - | - | - | - |
| 1787470810 | 23.33° C | 83% | 1015.5 hPa | - | - | - | - |
| 1787470210 | 23.33° C | 85% | 1015.4 hPa | - | - | - | - |
| 1787469610 | 22.78° C | 93% | 1015.8 hPa | - | - | - | - |
| 1787469010 | 22.78° C | 97% | 1015.8 hPa | - | - | - | - |
| 1787468410 | 23.33° C | 97% | 1015.5 hPa | - | - | - | - |
| 1787467810 | 22.22° C | 10% | - | - | - | - | - |
| 1787467210 | 22.22° C | 10% | - | - | - | - | - |
* Rain since midnight (hover to see other rain measurements)
** Current wind speed in m/s (hover to see current wind gust speed)